sensor_id;sensor_type;location;lat;lon;timestamp;P1;durP1;ratioP1;P2;durP2;ratioP2
51122;SDS011;37162;41.724;13.346;2022-07-24T00:02:01;2.20;;;2.00;;
51122;SDS011;37162;41.724;13.346;2022-07-24T00:04:27;2.53;;;2.00;;
51122;SDS011;37162;41.724;13.346;2022-07-24T00:06:52;2.22;;;2.03;;
51122;SDS011;37162;41.724;13.346;2022-07-24T00:09:18;2.40;;;2.20;;
51122;SDS011;37162;41.724;13.346;2022-07-24T00:11:43;2.38;;;2.00;;
51122;SDS011;37162;41.724;13.346;2022-07-24T00:14:09;2.10;;;1.90;;
51122;SDS011;37162;41.724;13.346;2022-07-24T00:16:34;2.25;;;2.05;;
51122;SDS011;37162;41.724;13.346;2022-07-24T00:19:00;2.10;;;1.90;;
51122;SDS011;37162;41.724;13.346;2022-07-24T00:21:26;1.98;;;1.85;;
51122;SDS011;37162;41.724;13.346;2022-07-24T00:23:51;4.07;;;2.08;;
51122;SDS011;37162;41.724;13.346;2022-07-24T00:26:17;1.98;;;1.67;;
51122;SDS011;37162;41.724;13.346;2022-07-24T00:28:42;2.42;;;2.20;;
51122;SDS011;37162;41.724;13.346;2022-07-24T00:31:08;2.05;;;1.88;;
51122;SDS011;37162;41.724;13.346;2022-07-24T00:33:33;2.53;;;2.00;;
51122;SDS011;37162;41.724;13.346;2022-07-24T00:35:59;1.70;;;1.60;;
51122;SDS011;37162;41.724;13.346;2022-07-24T00:38:24;1.90;;;1.80;;
51122;SDS011;37162;41.724;13.346;2022-07-24T00:40:50;2.08;;;1.80;;
51122;SDS011;37162;41.724;13.346;2022-07-24T00:43:15;2.30;;;2.10;;
51122;SDS011;37162;41.724;13.346;2022-07-24T00:45:42;3.42;;;2.30;;
51122;SDS011;37162;41.724;13.346;2022-07-24T00:48:08;3.08;;;2.13;;
51122;SDS011;37162;41.724;13.346;2022-07-24T00:50:34;3.90;;;2.42;;
51122;SDS011;37162;41.724;13.346;2022-07-24T00:53:00;2.63;;;2.13;;
51122;SDS011;37162;41.724;13.346;2022-07-24T00:55:25;3.70;;;2.53;;
51122;SDS011;37162;41.724;13.346;2022-07-24T00:57:52;7.15;;;2.30;;
51122;SDS011;37162;41.724;13.346;2022-07-24T01:00:18;3.88;;;2.83;;
51122;SDS011;37162;41.724;13.346;2022-07-24T01:02:45;2.28;;;2.08;;
51122;SDS011;37162;41.724;13.346;2022-07-24T01:05:11;6.18;;;3.00;;
51122;SDS011;37162;41.724;13.346;2022-07-24T01:07:37;2.65;;;1.95;;
51122;SDS011;37162;41.724;13.346;2022-07-24T01:10:03;2.25;;;1.90;;
51122;SDS011;37162;41.724;13.346;2022-07-24T01:12:30;3.28;;;2.20;;
51122;SDS011;37162;41.724;13.346;2022-07-24T01:14:57;3.17;;;2.30;;
51122;SDS011;37162;41.724;13.346;2022-07-24T01:17:22;2.13;;;1.92;;
51122;SDS011;37162;41.724;13.346;2022-07-24T01:19:48;3.67;;;2.10;;
51122;SDS011;37162;41.724;13.346;2022-07-24T01:22:15;2.67;;;2.10;;
51122;SDS011;37162;41.724;13.346;2022-07-24T01:24:40;2.17;;;2.00;;
51122;SDS011;37162;41.724;13.346;2022-07-24T01:27:06;2.63;;;1.90;;
51122;SDS011;37162;41.724;13.346;2022-07-24T01:29:32;2.40;;;2.20;;
51122;SDS011;37162;41.724;13.346;2022-07-24T01:31:58;2.60;;;1.85;;
51122;SDS011;37162;41.724;13.346;2022-07-24T01:34:24;2.22;;;1.88;;
51122;SDS011;37162;41.724;13.346;2022-07-24T01:36:50;2.20;;;2.00;;
51122;SDS011;37162;41.724;13.346;2022-07-24T01:39:15;2.38;;;2.17;;
51122;SDS011;37162;41.724;13.346;2022-07-24T01:41:41;1.90;;;1.77;;
51122;SDS011;37162;41.724;13.346;2022-07-24T01:44:06;1.88;;;1.75;;
51122;SDS011;37162;41.724;13.346;2022-07-24T01:46:32;2.17;;;1.95;;
51122;SDS011;37162;41.724;13.346;2022-07-24T01:48:57;2.33;;;2.00;;
51122;SDS011;37162;41.724;13.346;2022-07-24T01:51:23;2.22;;;1.83;;
51122;SDS011;37162;41.724;13.346;2022-07-24T01:53:48;3.42;;;2.20;;
51122;SDS011;37162;41.724;13.346;2022-07-24T01:56:13;2.30;;;2.10;;
51122;SDS011;37162;41.724;13.346;2022-07-24T01:58:39;3.40;;;2.20;;
51122;SDS011;37162;41.724;13.346;2022-07-24T02:01:05;2.30;;;1.98;;
51122;SDS011;37162;41.724;13.346;2022-07-24T02:03:31;1.92;;;1.83;;
51122;SDS011;37162;41.724;13.346;2022-07-24T02:05:56;3.10;;;2.50;;
51122;SDS011;37162;41.724;13.346;2022-07-24T02:08:21;2.50;;;2.30;;
51122;SDS011;37162;41.724;13.346;2022-07-24T02:10:47;2.30;;;2.10;;
51122;SDS011;37162;41.724;13.346;2022-07-24T02:13:12;2.97;;;2.40;;
51122;SDS011;37162;41.724;13.346;2022-07-24T02:15:38;2.42;;;2.22;;
51122;SDS011;37162;41.724;13.346;2022-07-24T02:18:03;2.38;;;2.17;;
51122;SDS011;37162;41.724;13.346;2022-07-24T02:20:29;2.67;;;2.47;;
51122;SDS011;37162;41.724;13.346;2022-07-24T02:22:54;2.38;;;2.17;;
51122;SDS011;37162;41.724;13.346;2022-07-24T02:25:20;2.17;;;1.98;;
51122;SDS011;37162;41.724;13.346;2022-07-24T02:27:46;2.28;;;2.08;;
51122;SDS011;37162;41.724;13.346;2022-07-24T02:30:15;2.42;;;1.77;;
51122;SDS011;37162;41.724;13.346;2022-07-24T02:32:46;3.00;;;2.70;;
51122;SDS011;37162;41.724;13.346;2022-07-24T02:35:11;4.95;;;2.28;;
51122;SDS011;37162;41.724;13.346;2022-07-24T02:37:40;2.97;;;2.20;;
51122;SDS011;37162;41.724;13.346;2022-07-24T02:40:09;2.67;;;2.40;;
51122;SDS011;37162;41.724;13.346;2022-07-24T02:42:35;4.97;;;2.42;;
51122;SDS011;37162;41.724;13.346;2022-07-24T02:45:01;2.85;;;2.45;;
51122;SDS011;37162;41.724;13.346;2022-07-24T02:47:28;2.72;;;2.40;;
51122;SDS011;37162;41.724;13.346;2022-07-24T02:49:53;3.10;;;2.85;;
51122;SDS011;37162;41.724;13.346;2022-07-24T02:52:19;3.20;;;2.88;;
51122;SDS011;37162;41.724;13.346;2022-07-24T02:54:44;2.17;;;2.08;;
51122;SDS011;37162;41.724;13.346;2022-07-24T02:57:10;2.40;;;2.20;;
51122;SDS011;37162;41.724;13.346;2022-07-24T02:59:35;2.72;;;2.17;;
51122;SDS011;37162;41.724;13.346;2022-07-24T03:02:00;2.50;;;2.30;;
51122;SDS011;37162;41.724;13.346;2022-07-24T03:04:26;3.45;;;2.88;;
51122;SDS011;37162;41.724;13.346;2022-07-24T03:06:51;2.50;;;2.30;;
51122;SDS011;37162;41.724;13.346;2022-07-24T03:09:17;3.67;;;2.83;;
51122;SDS011;37162;41.724;13.346;2022-07-24T03:11:42;2.45;;;2.13;;
51122;SDS011;37162;41.724;13.346;2022-07-24T03:14:07;4.40;;;2.10;;
51122;SDS011;37162;41.724;13.346;2022-07-24T03:16:33;3.00;;;2.72;;
51122;SDS011;37162;41.724;13.346;2022-07-24T03:18:58;2.60;;;2.33;;
51122;SDS011;37162;41.724;13.346;2022-07-24T03:21:24;2.53;;;2.33;;
51122;SDS011;37162;41.724;13.346;2022-07-24T03:23:49;2.92;;;2.50;;
51122;SDS011;37162;41.724;13.346;2022-07-24T03:26:15;3.83;;;2.63;;
51122;SDS011;37162;41.724;13.346;2022-07-24T03:28:40;2.80;;;2.55;;
51122;SDS011;37162;41.724;13.346;2022-07-24T03:31:06;2.22;;;2.03;;
51122;SDS011;37162;41.724;13.346;2022-07-24T03:33:32;4.35;;;2.55;;
51122;SDS011;37162;41.724;13.346;2022-07-24T03:35:58;2.50;;;2.30;;
51122;SDS011;37162;41.724;13.346;2022-07-24T03:38:24;3.05;;;2.50;;
51122;SDS011;37162;41.724;13.346;2022-07-24T03:40:49;3.30;;;2.50;;
51122;SDS011;37162;41.724;13.346;2022-07-24T03:43:15;3.08;;;2.35;;
51122;SDS011;37162;41.724;13.346;2022-07-24T03:45:40;2.08;;;1.88;;
51122;SDS011;37162;41.724;13.346;2022-07-24T03:48:06;2.40;;;2.20;;
51122;SDS011;37162;41.724;13.346;2022-07-24T03:50:31;2.75;;;2.22;;
51122;SDS011;37162;41.724;13.346;2022-07-24T03:52:57;5.72;;;2.40;;
51122;SDS011;37162;41.724;13.346;2022-07-24T03:55:22;3.55;;;2.80;;
51122;SDS011;37162;41.724;13.346;2022-07-24T03:57:47;2.45;;;2.25;;
51122;SDS011;37162;41.724;13.346;2022-07-24T04:00:13;2.42;;;2.22;;
51122;SDS011;37162;41.724;13.346;2022-07-24T04:02:39;2.15;;;1.95;;
51122;SDS011;37162;41.724;13.346;2022-07-24T04:05:06;4.50;;;2.63;;
51122;SDS011;37162;41.724;13.346;2022-07-24T04:07:34;2.95;;;2.40;;
51122;SDS011;37162;41.724;13.346;2022-07-24T04:10:00;2.40;;;2.20;;
51122;SDS011;37162;41.724;13.346;2022-07-24T04:12:26;2.58;;;2.38;;
51122;SDS011;37162;41.724;13.346;2022-07-24T04:14:51;2.92;;;2.65;;
51122;SDS011;37162;41.724;13.346;2022-07-24T04:17:17;2.35;;;1.98;;
51122;SDS011;37162;41.724;13.346;2022-07-24T04:19:42;3.95;;;2.50;;
51122;SDS011;37162;41.724;13.346;2022-07-24T04:22:08;3.38;;;3.08;;
51122;SDS011;37162;41.724;13.346;2022-07-24T04:24:33;5.22;;;2.60;;
51122;SDS011;37162;41.724;13.346;2022-07-24T04:26:58;4.75;;;3.10;;
51122;SDS011;37162;41.724;13.346;2022-07-24T04:29:24;3.33;;;2.70;;
51122;SDS011;37162;41.724;13.346;2022-07-24T04:31:49;2.88;;;2.60;;
51122;SDS011;37162;41.724;13.346;2022-07-24T04:34:15;3.78;;;2.75;;
51122;SDS011;37162;41.724;13.346;2022-07-24T04:36:40;3.40;;;2.83;;
51122;SDS011;37162;41.724;13.346;2022-07-24T04:39:06;3.78;;;2.55;;
51122;SDS011;37162;41.724;13.346;2022-07-24T04:41:31;3.03;;;2.60;;
51122;SDS011;37162;41.724;13.346;2022-07-24T04:43:57;2.97;;;2.60;;
51122;SDS011;37162;41.724;13.346;2022-07-24T04:46:23;2.83;;;2.55;;
51122;SDS011;37162;41.724;13.346;2022-07-24T04:48:48;3.75;;;3.03;;
51122;SDS011;37162;41.724;13.346;2022-07-24T04:51:13;3.40;;;2.78;;
51122;SDS011;37162;41.724;13.346;2022-07-24T04:53:39;4.35;;;2.90;;
51122;SDS011;37162;41.724;13.346;2022-07-24T04:56:04;3.20;;;2.70;;
51122;SDS011;37162;41.724;13.346;2022-07-24T04:58:30;2.45;;;2.25;;
51122;SDS011;37162;41.724;13.346;2022-07-24T05:00:56;2.90;;;2.33;;
51122;SDS011;37162;41.724;13.346;2022-07-24T05:03:21;2.85;;;2.45;;
51122;SDS011;37162;41.724;13.346;2022-07-24T05:05:47;3.08;;;2.83;;
51122;SDS011;37162;41.724;13.346;2022-07-24T05:08:12;3.35;;;2.40;;
51122;SDS011;37162;41.724;13.346;2022-07-24T05:10:37;3.35;;;2.67;;
51122;SDS011;37162;41.724;13.346;2022-07-24T05:13:03;4.90;;;2.80;;
51122;SDS011;37162;41.724;13.346;2022-07-24T05:15:28;7.82;;;3.33;;
51122;SDS011;37162;41.724;13.346;2022-07-24T05:17:54;21.13;;;5.13;;
51122;SDS011;37162;41.724;13.346;2022-07-24T05:20:19;29.38;;;4.32;;
51122;SDS011;37162;41.724;13.346;2022-07-24T05:22:45;14.10;;;3.80;;
51122;SDS011;37162;41.724;13.346;2022-07-24T05:25:10;18.05;;;3.45;;
51122;SDS011;37162;41.724;13.346;2022-07-24T05:27:36;11.48;;;3.00;;
51122;SDS011;37162;41.724;13.346;2022-07-24T05:30:03;7.65;;;3.25;;
51122;SDS011;37162;41.724;13.346;2022-07-24T05:32:30;12.60;;;3.50;;
51122;SDS011;37162;41.724;13.346;2022-07-24T05:34:55;9.27;;;3.58;;
51122;SDS011;37162;41.724;13.346;2022-07-24T05:37:20;11.52;;;2.90;;
51122;SDS011;37162;41.724;13.346;2022-07-24T05:39:46;7.20;;;4.07;;
51122;SDS011;37162;41.724;13.346;2022-07-24T05:42:11;11.02;;;4.45;;
51122;SDS011;37162;41.724;13.346;2022-07-24T05:44:37;6.53;;;3.90;;
51122;SDS011;37162;41.724;13.346;2022-07-24T05:47:02;6.55;;;3.33;;
51122;SDS011;37162;41.724;13.346;2022-07-24T05:49:28;5.20;;;3.45;;
51122;SDS011;37162;41.724;13.346;2022-07-24T05:51:53;8.77;;;3.80;;
51122;SDS011;37162;41.724;13.346;2022-07-24T05:54:19;5.78;;;3.50;;
51122;SDS011;37162;41.724;13.346;2022-07-24T05:56:44;3.67;;;2.95;;
51122;SDS011;37162;41.724;13.346;2022-07-24T05:59:10;3.85;;;3.20;;
51122;SDS011;37162;41.724;13.346;2022-07-24T06:01:35;4.95;;;3.22;;
51122;SDS011;37162;41.724;13.346;2022-07-24T06:04:00;6.03;;;3.33;;
51122;SDS011;37162;41.724;13.346;2022-07-24T06:06:26;4.38;;;3.33;;
51122;SDS011;37162;41.724;13.346;2022-07-24T06:08:51;4.68;;;2.63;;
51122;SDS011;37162;41.724;13.346;2022-07-24T06:11:17;4.72;;;3.47;;
51122;SDS011;37162;41.724;13.346;2022-07-24T06:13:42;5.75;;;3.55;;
51122;SDS011;37162;41.724;13.346;2022-07-24T06:16:08;6.25;;;3.60;;
51122;SDS011;37162;41.724;13.346;2022-07-24T06:18:34;6.13;;;3.47;;
51122;SDS011;37162;41.724;13.346;2022-07-24T06:21:00;3.70;;;3.25;;
51122;SDS011;37162;41.724;13.346;2022-07-24T06:23:25;4.32;;;3.45;;
51122;SDS011;37162;41.724;13.346;2022-07-24T06:25:51;4.78;;;3.00;;
51122;SDS011;37162;41.724;13.346;2022-07-24T06:28:16;5.82;;;3.38;;
51122;SDS011;37162;41.724;13.346;2022-07-24T06:30:41;3.03;;;2.72;;
51122;SDS011;37162;41.724;13.346;2022-07-24T06:33:07;4.68;;;3.58;;
51122;SDS011;37162;41.724;13.346;2022-07-24T06:35:32;3.75;;;2.90;;
51122;SDS011;37162;41.724;13.346;2022-07-24T06:37:58;5.45;;;3.70;;
51122;SDS011;37162;41.724;13.346;2022-07-24T06:40:25;4.32;;;3.17;;
51122;SDS011;37162;41.724;13.346;2022-07-24T06:42:51;4.00;;;3.30;;
51122;SDS011;37162;41.724;13.346;2022-07-24T06:45:17;4.22;;;3.13;;
51122;SDS011;37162;41.724;13.346;2022-07-24T06:47:42;3.20;;;2.90;;
51122;SDS011;37162;41.724;13.346;2022-07-24T06:50:08;6.75;;;3.75;;
51122;SDS011;37162;41.724;13.346;2022-07-24T06:52:35;7.15;;;3.95;;
51122;SDS011;37162;41.724;13.346;2022-07-24T06:55:01;4.15;;;3.40;;
51122;SDS011;37162;41.724;13.346;2022-07-24T06:57:28;3.80;;;3.15;;
51122;SDS011;37162;41.724;13.346;2022-07-24T06:59:53;5.03;;;3.50;;
51122;SDS011;37162;41.724;13.346;2022-07-24T07:02:20;3.85;;;3.20;;
51122;SDS011;37162;41.724;13.346;2022-07-24T07:04:48;4.40;;;3.20;;
51122;SDS011;37162;41.724;13.346;2022-07-24T07:07:14;6.80;;;4.00;;
51122;SDS011;37162;41.724;13.346;2022-07-24T07:09:40;5.93;;;3.50;;
51122;SDS011;37162;41.724;13.346;2022-07-24T07:12:06;3.40;;;3.10;;
51122;SDS011;37162;41.724;13.346;2022-07-24T07:14:32;4.93;;;3.30;;
51122;SDS011;37162;41.724;13.346;2022-07-24T07:16:57;5.38;;;3.50;;
51122;SDS011;37162;41.724;13.346;2022-07-24T07:19:23;3.88;;;3.38;;
51122;SDS011;37162;41.724;13.346;2022-07-24T07:21:48;4.30;;;3.22;;
51122;SDS011;37162;41.724;13.346;2022-07-24T07:24:14;6.40;;;3.15;;
51122;SDS011;37162;41.724;13.346;2022-07-24T07:26:39;5.07;;;3.60;;
51122;SDS011;37162;41.724;13.346;2022-07-24T07:29:05;5.07;;;3.92;;
51122;SDS011;37162;41.724;13.346;2022-07-24T07:31:30;3.97;;;3.03;;
51122;SDS011;37162;41.724;13.346;2022-07-24T07:33:55;4.10;;;3.70;;
51122;SDS011;37162;41.724;13.346;2022-07-24T07:36:22;5.40;;;3.95;;
51122;SDS011;37162;41.724;13.346;2022-07-24T07:38:48;6.57;;;3.53;;
51122;SDS011;37162;41.724;13.346;2022-07-24T07:41:14;3.53;;;3.22;;
51122;SDS011;37162;41.724;13.346;2022-07-24T07:43:39;4.45;;;3.15;;
51122;SDS011;37162;41.724;13.346;2022-07-24T07:46:06;4.05;;;3.45;;
51122;SDS011;37162;41.724;13.346;2022-07-24T07:48:32;4.88;;;3.65;;
51122;SDS011;37162;41.724;13.346;2022-07-24T07:50:57;4.22;;;3.35;;
51122;SDS011;37162;41.724;13.346;2022-07-24T07:53:23;3.97;;;3.40;;
51122;SDS011;37162;41.724;13.346;2022-07-24T07:55:48;3.75;;;3.35;;
51122;SDS011;37162;41.724;13.346;2022-07-24T07:58:16;5.25;;;3.85;;
51122;SDS011;37162;41.724;13.346;2022-07-24T08:00:42;4.20;;;3.70;;
51122;SDS011;37162;41.724;13.346;2022-07-24T08:03:08;5.05;;;3.28;;
51122;SDS011;37162;41.724;13.346;2022-07-24T08:05:34;6.35;;;3.80;;
51122;SDS011;37162;41.724;13.346;2022-07-24T08:07:59;4.13;;;3.38;;
51122;SDS011;37162;41.724;13.346;2022-07-24T08:10:25;6.70;;;4.28;;
51122;SDS011;37162;41.724;13.346;2022-07-24T08:12:51;6.53;;;3.75;;
51122;SDS011;37162;41.724;13.346;2022-07-24T08:15:16;3.75;;;3.33;;
51122;SDS011;37162;41.724;13.346;2022-07-24T08:17:42;4.38;;;3.97;;
51122;SDS011;37162;41.724;13.346;2022-07-24T08:20:08;4.65;;;3.80;;
51122;SDS011;37162;41.724;13.346;2022-07-24T08:22:34;5.15;;;3.58;;
51122;SDS011;37162;41.724;13.346;2022-07-24T08:24:59;4.35;;;3.50;;
51122;SDS011;37162;41.724;13.346;2022-07-24T08:27:24;4.45;;;3.47;;
51122;SDS011;37162;41.724;13.346;2022-07-24T08:29:50;4.68;;;3.22;;
51122;SDS011;37162;41.724;13.346;2022-07-24T08:32:15;5.20;;;3.83;;
51122;SDS011;37162;41.724;13.346;2022-07-24T08:34:41;3.58;;;3.28;;
51122;SDS011;37162;41.724;13.346;2022-07-24T08:37:06;5.25;;;3.55;;
51122;SDS011;37162;41.724;13.346;2022-07-24T08:39:32;3.92;;;3.38;;
51122;SDS011;37162;41.724;13.346;2022-07-24T08:41:57;3.47;;;3.17;;
51122;SDS011;37162;41.724;13.346;2022-07-24T08:44:23;4.20;;;3.33;;
51122;SDS011;37162;41.724;13.346;2022-07-24T08:46:48;5.85;;;3.33;;
51122;SDS011;37162;41.724;13.346;2022-07-24T08:49:15;4.18;;;3.42;;
51122;SDS011;37162;41.724;13.346;2022-07-24T08:51:41;3.95;;;3.30;;
51122;SDS011;37162;41.724;13.346;2022-07-24T08:54:08;5.00;;;3.58;;
51122;SDS011;37162;41.724;13.346;2022-07-24T08:56:35;4.38;;;3.55;;
51122;SDS011;37162;41.724;13.346;2022-07-24T08:59:03;8.77;;;4.35;;
51122;SDS011;37162;41.724;13.346;2022-07-24T09:01:29;5.90;;;3.58;;
51122;SDS011;37162;41.724;13.346;2022-07-24T09:03:55;3.92;;;3.22;;
51122;SDS011;37162;41.724;13.346;2022-07-24T09:06:20;5.45;;;3.40;;
51122;SDS011;37162;41.724;13.346;2022-07-24T09:09:04;4.85;;;3.53;;
51122;SDS011;37162;41.724;13.346;2022-07-24T09:11:29;4.72;;;3.63;;
51122;SDS011;37162;41.724;13.346;2022-07-24T09:14:01;5.88;;;3.88;;
51122;SDS011;37162;41.724;13.346;2022-07-24T09:16:46;6.35;;;3.50;;
51122;SDS011;37162;41.724;13.346;2022-07-24T09:19:12;5.53;;;3.50;;
51122;SDS011;37162;41.724;13.346;2022-07-24T09:21:39;4.75;;;3.60;;
51122;SDS011;37162;41.724;13.346;2022-07-24T09:24:17;4.75;;;4.18;;
51122;SDS011;37162;41.724;13.346;2022-07-24T09:26:48;4.90;;;4.00;;
51122;SDS011;37162;41.724;13.346;2022-07-24T09:29:24;4.18;;;3.65;;
51122;SDS011;37162;41.724;13.346;2022-07-24T09:32:00;4.68;;;4.28;;
51122;SDS011;37162;41.724;13.346;2022-07-24T09:34:28;6.80;;;3.38;;
51122;SDS011;37162;41.724;13.346;2022-07-24T09:36:58;4.32;;;3.72;;
51122;SDS011;37162;41.724;13.346;2022-07-24T09:39:31;3.67;;;3.38;;
51122;SDS011;37162;41.724;13.346;2022-07-24T09:41:59;3.75;;;3.30;;
51122;SDS011;37162;41.724;13.346;2022-07-24T09:44:25;5.97;;;3.60;;
51122;SDS011;37162;41.724;13.346;2022-07-24T09:46:55;5.07;;;3.40;;
51122;SDS011;37162;41.724;13.346;2022-07-24T09:49:24;5.53;;;3.60;;
51122;SDS011;37162;41.724;13.346;2022-07-24T09:54:39;4.38;;;3.33;;
51122;SDS011;37162;41.724;13.346;2022-07-24T09:59:47;4.07;;;3.45;;
51122;SDS011;37162;41.724;13.346;2022-07-24T10:02:21;5.68;;;4.63;;
51122;SDS011;37162;41.724;13.346;2022-07-24T10:04:48;3.97;;;3.50;;
51122;SDS011;37162;41.724;13.346;2022-07-24T10:07:15;5.63;;;3.85;;
51122;SDS011;37162;41.724;13.346;2022-07-24T10:09:43;5.10;;;3.38;;
51122;SDS011;37162;41.724;13.346;2022-07-24T10:12:21;6.20;;;3.65;;
51122;SDS011;37162;41.724;13.346;2022-07-24T10:14:49;4.15;;;3.72;;
51122;SDS011;37162;41.724;13.346;2022-07-24T10:17:17;4.60;;;3.53;;
51122;SDS011;37162;41.724;13.346;2022-07-24T10:19:44;5.97;;;3.85;;
51122;SDS011;37162;41.724;13.346;2022-07-24T10:22:13;4.20;;;3.63;;
51122;SDS011;37162;41.724;13.346;2022-07-24T10:27:27;3.90;;;3.50;;
51122;SDS011;37162;41.724;13.346;2022-07-24T10:29:57;4.78;;;3.60;;
51122;SDS011;37162;41.724;13.346;2022-07-24T10:32:24;7.28;;;3.78;;
51122;SDS011;37162;41.724;13.346;2022-07-24T10:45:46;5.47;;;3.42;;
51122;SDS011;37162;41.724;13.346;2022-07-24T10:48:35;3.83;;;3.28;;
51122;SDS011;37162;41.724;13.346;2022-07-24T10:51:05;4.20;;;3.78;;
51122;SDS011;37162;41.724;13.346;2022-07-24T11:03:52;3.65;;;3.20;;
51122;SDS011;37162;41.724;13.346;2022-07-24T11:06:17;4.78;;;3.83;;
51122;SDS011;37162;41.724;13.346;2022-07-24T11:18:40;8.15;;;3.95;;
51122;SDS011;37162;41.724;13.346;2022-07-24T11:21:11;10.43;;;3.70;;
51122;SDS011;37162;41.724;13.346;2022-07-24T11:23:37;7.70;;;4.13;;
51122;SDS011;37162;41.724;13.346;2022-07-24T11:29:14;10.75;;;4.53;;
51122;SDS011;37162;41.724;13.346;2022-07-24T11:31:56;6.90;;;3.78;;
51122;SDS011;37162;41.724;13.346;2022-07-24T11:34:24;5.25;;;3.75;;
51122;SDS011;37162;41.724;13.346;2022-07-24T11:36:51;4.63;;;3.50;;
51122;SDS011;37162;41.724;13.346;2022-07-24T11:39:19;4.97;;;3.65;;
51122;SDS011;37162;41.724;13.346;2022-07-24T11:41:53;5.00;;;3.55;;
51122;SDS011;37162;41.724;13.346;2022-07-24T11:46:50;4.10;;;3.33;;
51122;SDS011;37162;41.724;13.346;2022-07-24T11:49:17;3.75;;;3.35;;
51122;SDS011;37162;41.724;13.346;2022-07-24T11:51:47;4.45;;;3.60;;
51122;SDS011;37162;41.724;13.346;2022-07-24T11:56:44;5.60;;;3.88;;
51122;SDS011;37162;41.724;13.346;2022-07-24T11:59:30;4.55;;;3.35;;
51122;SDS011;37162;41.724;13.346;2022-07-24T12:02:03;6.13;;;3.92;;
51122;SDS011;37162;41.724;13.346;2022-07-24T12:04:35;3.55;;;3.08;;
51122;SDS011;37162;41.724;13.346;2022-07-24T12:07:08;7.43;;;3.17;;
51122;SDS011;37162;41.724;13.346;2022-07-24T12:09:45;4.95;;;3.58;;
51122;SDS011;37162;41.724;13.346;2022-07-24T12:12:27;5.82;;;3.28;;
51122;SDS011;37162;41.724;13.346;2022-07-24T12:15:05;5.25;;;3.28;;
51122;SDS011;37162;41.724;13.346;2022-07-24T12:17:34;4.13;;;3.33;;
51122;SDS011;37162;41.724;13.346;2022-07-24T12:20:20;4.35;;;3.08;;
51122;SDS011;37162;41.724;13.346;2022-07-24T12:22:46;4.40;;;3.55;;
51122;SDS011;37162;41.724;13.346;2022-07-24T12:25:14;5.45;;;3.88;;
51122;SDS011;37162;41.724;13.346;2022-07-24T12:30:17;4.65;;;3.88;;
51122;SDS011;37162;41.724;13.346;2022-07-24T12:32:52;5.63;;;3.67;;
51122;SDS011;37162;41.724;13.346;2022-07-24T12:35:27;5.47;;;3.83;;
51122;SDS011;37162;41.724;13.346;2022-07-24T12:37:55;4.25;;;3.63;;
51122;SDS011;37162;41.724;13.346;2022-07-24T12:40:24;4.80;;;3.35;;
51122;SDS011;37162;41.724;13.346;2022-07-24T12:42:55;3.58;;;3.22;;
51122;SDS011;37162;41.724;13.346;2022-07-24T12:45:35;3.63;;;3.22;;
51122;SDS011;37162;41.724;13.346;2022-07-24T12:48:07;3.70;;;3.40;;
51122;SDS011;37162;41.724;13.346;2022-07-24T12:50:32;5.72;;;3.60;;
51122;SDS011;37162;41.724;13.346;2022-07-24T12:53:08;5.90;;;3.38;;
51122;SDS011;37162;41.724;13.346;2022-07-24T12:55:34;3.90;;;3.22;;
51122;SDS011;37162;41.724;13.346;2022-07-24T12:58:04;7.43;;;3.85;;
51122;SDS011;37162;41.724;13.346;2022-07-24T13:00:30;3.90;;;3.38;;
51122;SDS011;37162;41.724;13.346;2022-07-24T13:02:57;4.55;;;3.65;;
51122;SDS011;37162;41.724;13.346;2022-07-24T13:05:41;4.82;;;3.90;;
51122;SDS011;37162;41.724;13.346;2022-07-24T13:08:10;5.38;;;3.50;;
51122;SDS011;37162;41.724;13.346;2022-07-24T13:10:36;4.63;;;3.50;;
51122;SDS011;37162;41.724;13.346;2022-07-24T13:13:02;4.70;;;3.80;;
51122;SDS011;37162;41.724;13.346;2022-07-24T13:15:30;3.70;;;3.25;;
51122;SDS011;37162;41.724;13.346;2022-07-24T13:17:56;4.00;;;3.60;;
51122;SDS011;37162;41.724;13.346;2022-07-24T13:20:24;4.30;;;3.60;;
51122;SDS011;37162;41.724;13.346;2022-07-24T13:22:49;4.35;;;3.80;;
51122;SDS011;37162;41.724;13.346;2022-07-24T13:25:15;3.75;;;2.90;;
51122;SDS011;37162;41.724;13.346;2022-07-24T13:27:41;3.42;;;2.83;;
51122;SDS011;37162;41.724;13.346;2022-07-24T13:30:08;4.35;;;3.17;;
51122;SDS011;37162;41.724;13.346;2022-07-24T13:32:35;4.15;;;3.42;;
51122;SDS011;37162;41.724;13.346;2022-07-24T13:35:02;5.50;;;3.30;;
51122;SDS011;37162;41.724;13.346;2022-07-24T13:37:30;4.57;;;3.05;;
51122;SDS011;37162;41.724;13.346;2022-07-24T13:39:56;3.83;;;3.10;;
51122;SDS011;37162;41.724;13.346;2022-07-24T13:42:21;4.18;;;3.05;;
51122;SDS011;37162;41.724;13.346;2022-07-24T13:44:47;4.82;;;3.40;;
51122;SDS011;37162;41.724;13.346;2022-07-24T13:47:13;5.72;;;3.47;;
51122;SDS011;37162;41.724;13.346;2022-07-24T13:49:38;4.68;;;3.67;;
51122;SDS011;37162;41.724;13.346;2022-07-24T13:52:04;5.57;;;3.10;;
51122;SDS011;37162;41.724;13.346;2022-07-24T13:54:31;7.00;;;3.28;;
51122;SDS011;37162;41.724;13.346;2022-07-24T13:56:57;4.10;;;3.33;;
51122;SDS011;37162;41.724;13.346;2022-07-24T13:59:24;6.32;;;2.92;;
51122;SDS011;37162;41.724;13.346;2022-07-24T14:01:50;4.75;;;3.22;;
51122;SDS011;37162;41.724;13.346;2022-07-24T14:04:16;3.92;;;3.25;;
51122;SDS011;37162;41.724;13.346;2022-07-24T14:06:43;8.52;;;3.30;;
51122;SDS011;37162;41.724;13.346;2022-07-24T14:09:09;5.22;;;3.03;;
51122;SDS011;37162;41.724;13.346;2022-07-24T14:11:36;5.97;;;3.08;;
51122;SDS011;37162;41.724;13.346;2022-07-24T14:14:06;3.75;;;3.00;;
51122;SDS011;37162;41.724;13.346;2022-07-24T14:16:33;5.05;;;2.95;;
51122;SDS011;37162;41.724;13.346;2022-07-24T14:18:59;5.32;;;3.83;;
51122;SDS011;37162;41.724;13.346;2022-07-24T14:21:24;5.78;;;3.17;;
51122;SDS011;37162;41.724;13.346;2022-07-24T14:23:50;4.45;;;3.15;;
51122;SDS011;37162;41.724;13.346;2022-07-24T14:26:15;8.05;;;3.17;;
51122;SDS011;37162;41.724;13.346;2022-07-24T14:28:41;5.25;;;3.47;;
51122;SDS011;37162;41.724;13.346;2022-07-24T14:31:06;4.00;;;3.17;;
51122;SDS011;37162;41.724;13.346;2022-07-24T14:33:32;4.38;;;3.53;;
51122;SDS011;37162;41.724;13.346;2022-07-24T14:35:59;4.97;;;3.45;;
51122;SDS011;37162;41.724;13.346;2022-07-24T14:38:25;4.88;;;3.75;;
51122;SDS011;37162;41.724;13.346;2022-07-24T14:40:50;4.53;;;3.70;;
51122;SDS011;37162;41.724;13.346;2022-07-24T14:43:16;5.40;;;3.22;;
51122;SDS011;37162;41.724;13.346;2022-07-24T14:45:41;4.20;;;3.15;;
51122;SDS011;37162;41.724;13.346;2022-07-24T14:48:06;3.72;;;3.35;;
51122;SDS011;37162;41.724;13.346;2022-07-24T14:50:32;3.65;;;3.25;;
51122;SDS011;37162;41.724;13.346;2022-07-24T14:52:58;4.85;;;3.78;;
51122;SDS011;37162;41.724;13.346;2022-07-24T14:55:23;5.70;;;3.55;;
51122;SDS011;37162;41.724;13.346;2022-07-24T14:57:49;4.40;;;3.55;;
51122;SDS011;37162;41.724;13.346;2022-07-24T15:00:14;5.55;;;3.72;;
51122;SDS011;37162;41.724;13.346;2022-07-24T15:02:40;5.57;;;3.55;;
51122;SDS011;37162;41.724;13.346;2022-07-24T15:05:05;3.70;;;3.40;;
51122;SDS011;37162;41.724;13.346;2022-07-24T15:07:31;4.25;;;3.35;;
51122;SDS011;37162;41.724;13.346;2022-07-24T15:09:57;3.75;;;3.08;;
51122;SDS011;37162;41.724;13.346;2022-07-24T15:12:22;6.78;;;3.47;;
51122;SDS011;37162;41.724;13.346;2022-07-24T15:14:48;4.93;;;3.50;;
51122;SDS011;37162;41.724;13.346;2022-07-24T15:17:14;6.93;;;3.50;;
51122;SDS011;37162;41.724;13.346;2022-07-24T15:19:39;4.68;;;3.10;;
51122;SDS011;37162;41.724;13.346;2022-07-24T15:22:05;6.60;;;3.72;;